createdAt,value
2019-06-15T00:00:49.580Z,21.80
2019-06-15T00:03:18.014Z,22.40
2019-06-15T00:05:46.466Z,21.13
2019-06-15T00:08:15.061Z,26.60
2019-06-15T00:10:43.502Z,26.27
2019-06-15T00:13:12.023Z,29.23
2019-06-15T00:15:40.493Z,34.00
2019-06-15T00:18:08.847Z,33.20
2019-06-15T00:20:37.299Z,29.73
2019-06-15T00:23:05.667Z,27.93
2019-06-15T00:25:34.113Z,28.07
2019-06-15T00:28:02.496Z,26.10
2019-06-15T00:30:30.961Z,21.50
2019-06-15T00:32:59.347Z,23.07
2019-06-15T00:35:27.791Z,25.77
2019-06-15T00:37:56.318Z,25.60
2019-06-15T00:40:24.771Z,32.67
2019-06-15T00:42:53.257Z,27.67
2019-06-15T00:45:21.614Z,31.40
2019-06-15T00:47:49.976Z,33.07
2019-06-15T00:50:18.440Z,26.10
2019-06-15T00:52:46.874Z,34.53
2019-06-15T00:55:15.308Z,35.53
2019-06-15T00:57:43.751Z,32.37
2019-06-15T01:00:12.475Z,35.50
2019-06-15T01:02:40.843Z,36.83
2019-06-15T01:05:09.299Z,33.17
2019-06-15T01:07:37.690Z,36.50
2019-06-15T01:10:06.421Z,34.33
2019-06-15T01:12:34.783Z,39.10
2019-06-15T01:15:03.316Z,40.00
2019-06-15T01:17:31.818Z,40.40
2019-06-15T01:20:00.270Z,42.97
2019-06-15T01:22:28.703Z,45.87
2019-06-15T01:25:05.242Z,45.00
2019-06-15T01:27:27.314Z,42.47
2019-06-15T01:29:55.704Z,35.10
2019-06-15T01:32:24.143Z,37.07
2019-06-15T01:34:52.582Z,44.47
2019-06-15T01:37:21.031Z,44.33
2019-06-15T01:39:49.479Z,43.97
2019-06-15T01:42:17.923Z,42.30
2019-06-15T01:44:46.378Z,43.67
2019-06-15T01:47:14.829Z,38.40
2019-06-15T01:49:43.194Z,44.37
2019-06-15T01:52:11.563Z,50.10
2019-06-15T01:54:40.003Z,49.70
2019-06-15T01:57:08.378Z,52.00
2019-06-15T01:59:36.920Z,51.40
2019-06-15T02:02:05.376Z,54.40
2019-06-15T02:04:33.805Z,55.47
2019-06-15T02:07:02.276Z,51.53
2019-06-15T02:09:30.727Z,49.00
2019-06-15T02:11:59.359Z,57.93
2019-06-15T02:14:28.066Z,53.10
2019-06-15T02:16:56.562Z,52.40
2019-06-15T02:19:24.930Z,50.10
2019-06-15T02:21:53.387Z,58.27
2019-06-15T02:24:21.907Z,54.43
2019-06-15T02:26:50.337Z,60.83
2019-06-15T02:29:18.795Z,55.40
2019-06-15T02:31:47.175Z,38.33
2019-06-15T02:34:15.556Z,54.10
2019-06-15T02:36:43.948Z,51.07
2019-06-15T02:39:12.388Z,53.03
2019-06-15T02:41:40.849Z,43.17
2019-06-15T02:44:09.305Z,55.40
2019-06-15T02:46:38.455Z,59.17
2019-06-15T02:49:06.967Z,57.90
2019-06-15T02:51:35.427Z,50.80
2019-06-15T02:54:03.976Z,50.50
2019-06-15T02:56:32.443Z,57.27
2019-06-15T02:59:00.919Z,56.30
2019-06-15T03:01:29.371Z,63.27
2019-06-15T03:03:57.818Z,58.17
2019-06-15T03:06:26.280Z,55.97
2019-06-15T03:08:55.039Z,57.23
2019-06-15T03:11:23.403Z,56.33
2019-06-15T03:13:52.470Z,54.07
2019-06-15T03:16:20.922Z,54.43
2019-06-15T03:18:49.312Z,56.37
2019-06-15T03:21:17.912Z,53.43
2019-06-15T03:23:46.283Z,60.37
2019-06-15T03:26:14.680Z,49.10
2019-06-15T03:28:43.175Z,57.27
2019-06-15T03:31:11.632Z,60.50
2019-06-15T03:33:40.094Z,57.77
2019-06-15T03:36:08.690Z,60.30
2019-06-15T03:38:37.135Z,59.53
2019-06-15T03:41:05.562Z,59.67
2019-06-15T03:43:34.037Z,62.03
2019-06-15T03:46:02.469Z,62.03
2019-06-15T03:48:30.947Z,61.40
2019-06-15T03:50:59.395Z,59.27
2019-06-15T03:53:27.775Z,60.87
2019-06-15T03:55:56.231Z,58.40
2019-06-15T03:58:24.683Z,63.90
2019-06-15T04:00:57.050Z,64.50
2019-06-15T04:03:25.512Z,57.43
2019-06-15T04:05:53.907Z,51.00
2019-06-15T04:08:22.370Z,59.77
2019-06-15T04:10:50.721Z,59.50
2019-06-15T04:13:19.168Z,52.93
2019-06-15T04:15:47.611Z,49.47
2019-06-15T04:18:16.084Z,53.00
2019-06-15T04:20:44.466Z,56.40
2019-06-15T04:23:12.907Z,56.50
2019-06-15T04:25:44.101Z,53.97
2019-06-15T04:28:11.551Z,44.73
2019-06-15T04:30:40.482Z,43.17
2019-06-15T04:33:08.904Z,51.93
2019-06-15T04:35:37.465Z,50.37
2019-06-15T04:38:05.999Z,49.63
2019-06-15T04:40:38.196Z,46.50
2019-06-15T04:43:06.374Z,49.83
2019-06-15T04:45:34.747Z,52.67
2019-06-15T04:48:03.177Z,53.37
2019-06-15T04:50:31.647Z,41.63
2019-06-15T04:53:00.231Z,49.17
2019-06-15T04:55:28.678Z,52.07
2019-06-15T04:57:57.095Z,50.63
2019-06-15T05:00:25.542Z,51.10
2019-06-15T05:02:53.892Z,49.40
2019-06-15T05:05:22.315Z,51.30
2019-06-15T05:07:50.679Z,50.10
2019-06-15T05:10:19.137Z,46.03
2019-06-15T05:12:47.520Z,39.90
2019-06-15T05:15:16.071Z,44.13
2019-06-15T05:17:46.307Z,45.83
2019-06-15T05:20:14.882Z,47.50
2019-06-15T05:22:43.247Z,39.70
2019-06-15T05:25:11.763Z,43.50
2019-06-15T05:27:40.134Z,39.10
2019-06-15T05:30:08.587Z,40.80
2019-06-15T05:32:36.955Z,40.10
2019-06-15T05:35:05.845Z,36.93
2019-06-15T05:37:34.304Z,37.57
2019-06-15T05:40:02.783Z,34.27
2019-06-15T05:42:31.246Z,31.40
2019-06-15T05:44:59.618Z,32.03
2019-06-15T05:47:28.058Z,30.07
2019-06-15T05:49:56.499Z,26.53
2019-06-15T05:52:25.025Z,27.07
2019-06-15T05:54:53.390Z,29.47
2019-06-15T05:57:22.131Z,29.87
2019-06-15T05:59:50.633Z,27.67
2019-06-15T06:02:21.704Z,31.37
2019-06-15T06:04:49.139Z,24.00
2019-06-15T06:07:17.640Z,24.80
2019-06-15T06:09:46.032Z,25.67
2019-06-15T06:12:14.577Z,26.60
2019-06-15T06:14:43.033Z,29.03
2019-06-15T06:17:11.488Z,26.77
2019-06-15T06:19:39.875Z,22.63
2019-06-15T06:22:08.652Z,21.33
2019-06-15T06:24:37.028Z,22.10
2019-06-15T06:27:05.566Z,19.77
2019-06-15T06:29:34.095Z,18.10
2019-06-15T06:32:02.479Z,19.77
2019-06-15T06:34:30.959Z,19.93
2019-06-15T06:36:59.427Z,18.63
2019-06-15T06:39:27.791Z,19.27
2019-06-15T06:41:56.271Z,18.40
2019-06-15T06:44:24.634Z,19.60
2019-06-15T06:46:53.183Z,22.67
2019-06-15T06:49:21.571Z,22.60
2019-06-15T06:51:49.963Z,22.53
2019-06-15T06:54:18.330Z,24.73
2019-06-15T06:56:46.820Z,25.30
2019-06-15T06:59:15.268Z,24.77
2019-06-15T07:01:43.790Z,29.97
2019-06-15T07:04:12.256Z,30.17
2019-06-15T07:06:40.712Z,33.77
2019-06-15T07:09:09.091Z,31.73
2019-06-15T07:11:37.514Z,35.20
2019-06-15T07:14:05.922Z,37.17
2019-06-15T07:16:34.416Z,39.63
2019-06-15T07:19:02.865Z,42.33
2019-06-15T07:21:31.228Z,44.13
2019-06-15T07:23:59.781Z,46.00
2019-06-15T07:26:28.250Z,49.87
2019-06-15T07:28:56.659Z,50.20
2019-06-15T07:31:25.054Z,53.37
2019-06-15T07:33:53.461Z,52.93
2019-06-15T07:36:22.014Z,48.77
2019-06-15T07:38:50.523Z,50.10
2019-06-15T07:41:19.034Z,54.33
2019-06-15T07:43:47.566Z,50.80
2019-06-15T07:46:16.109Z,53.07
2019-06-15T07:48:44.547Z,50.10
2019-06-15T07:51:13.005Z,47.37
2019-06-15T07:53:41.480Z,45.37
2019-06-15T07:56:09.935Z,44.23
2019-06-15T07:58:38.323Z,44.77
2019-06-15T08:01:06.773Z,45.23
2019-06-15T08:03:35.259Z,47.07
2019-06-15T08:06:03.751Z,48.70
2019-06-15T08:08:32.215Z,54.57
2019-06-15T08:11:00.800Z,53.60
2019-06-15T08:13:29.263Z,52.97
2019-06-15T08:15:57.715Z,53.83
2019-06-15T08:18:26.242Z,54.80
2019-06-15T08:20:54.691Z,56.57
2019-06-15T08:23:23.165Z,61.93
2019-06-15T08:25:51.565Z,67.13
2019-06-15T08:28:20.011Z,68.17
2019-06-15T08:30:48.461Z,64.67
2019-06-15T08:33:17.051Z,60.00
2019-06-15T08:35:45.536Z,59.30
2019-06-15T08:38:13.911Z,57.77
2019-06-15T08:40:42.753Z,52.90
2019-06-15T08:43:11.207Z,51.07
2019-06-15T08:45:39.704Z,48.90
2019-06-15T08:48:08.310Z,46.70
2019-06-15T08:50:36.788Z,44.50
2019-06-15T08:53:05.324Z,39.20
2019-06-15T08:55:33.730Z,35.23
2019-06-15T08:58:02.126Z,38.20
2019-06-15T09:00:30.647Z,42.00
2019-06-15T09:02:59.211Z,34.60
2019-06-15T09:05:27.708Z,39.50
2019-06-15T09:07:56.279Z,38.20
2019-06-15T09:10:31.459Z,39.40
2019-06-15T09:12:59.964Z,38.03
2019-06-15T09:15:56.865Z,36.37
2019-06-15T09:18:25.368Z,37.10
2019-06-15T09:20:58.149Z,36.30
2019-06-15T09:23:26.655Z,32.90
2019-06-15T09:25:55.134Z,32.77
2019-06-15T09:28:23.702Z,31.93
2019-06-15T09:30:52.187Z,28.57
2019-06-15T09:33:20.653Z,31.17
2019-06-15T09:35:50.300Z,30.97
2019-06-15T09:38:18.775Z,29.37
2019-06-15T09:40:47.379Z,31.70
2019-06-15T09:43:15.815Z,29.43
2019-06-15T09:45:44.747Z,25.93
2019-06-15T09:48:13.414Z,25.17
2019-06-15T09:50:41.944Z,23.57
2019-06-15T09:53:10.379Z,25.67
2019-06-15T09:55:38.792Z,23.97
2019-06-15T09:58:07.257Z,25.50
2019-06-15T10:00:39.573Z,24.90
2019-06-15T10:03:08.029Z,25.17
2019-06-15T10:05:36.546Z,29.93
2019-06-15T10:08:05.053Z,28.57
2019-06-15T10:10:33.601Z,32.00
2019-06-15T10:13:02.114Z,31.87
2019-06-15T10:15:30.637Z,32.10
2019-06-15T10:17:59.132Z,30.03
2019-06-15T10:20:27.666Z,28.20
2019-06-15T10:22:56.175Z,30.43
2019-06-15T10:25:24.636Z,24.17
2019-06-15T10:27:53.235Z,23.20
2019-06-15T10:30:21.732Z,22.73
2019-06-15T10:32:51.472Z,19.33
2019-06-15T10:35:20.164Z,20.77
2019-06-15T10:37:48.867Z,17.00
2019-06-15T10:40:17.412Z,16.07
2019-06-15T10:42:45.919Z,14.87
2019-06-15T10:45:15.419Z,13.03
2019-06-15T10:47:43.939Z,11.97
2019-06-15T10:50:12.425Z,13.13
2019-06-15T10:52:41.004Z,13.60
2019-06-15T10:55:09.794Z,15.60
2019-06-15T10:57:39.440Z,16.00
2019-06-15T11:00:08.051Z,14.93
2019-06-15T11:02:36.778Z,15.93
2019-06-15T11:05:05.593Z,19.70
2019-06-15T11:07:34.500Z,17.60
2019-06-15T11:10:03.091Z,20.17
2019-06-15T11:12:45.411Z,25.67
2019-06-15T11:15:01.838Z,27.73
2019-06-15T11:17:32.262Z,26.30
2019-06-15T11:20:00.660Z,26.60
2019-06-15T11:22:29.293Z,28.27
2019-06-15T11:24:59.761Z,29.47
2019-06-15T11:27:30.709Z,27.17
2019-06-15T11:30:12.543Z,23.80
2019-06-15T11:32:29.321Z,20.60
2019-06-15T11:34:57.779Z,20.83
2019-06-15T11:37:26.235Z,19.20
2019-06-15T11:39:54.687Z,19.30
2019-06-15T11:42:23.272Z,15.73
2019-06-15T11:44:51.740Z,12.57
2019-06-15T11:47:20.175Z,12.20
2019-06-15T11:49:48.734Z,13.20
2019-06-15T11:52:17.188Z,12.23
2019-06-15T11:54:45.751Z,12.30
2019-06-15T11:57:14.248Z,13.50
2019-06-15T11:59:44.854Z,13.90
2019-06-15T12:02:13.526Z,14.37
2019-06-15T12:04:41.999Z,13.60
2019-06-15T12:07:10.622Z,13.20
2019-06-15T12:09:39.306Z,9.50
2019-06-15T12:12:07.770Z,6.17
2019-06-15T12:14:36.403Z,5.23
2019-06-15T12:17:06.039Z,3.07
2019-06-15T12:19:34.827Z,3.20
2019-06-15T12:22:04.454Z,3.27
2019-06-15T12:24:32.927Z,4.07
2019-06-15T12:27:03.003Z,4.00
2019-06-15T12:29:33.044Z,3.23
2019-06-15T12:32:01.672Z,3.50
2019-06-15T12:34:30.200Z,4.03
2019-06-15T12:36:58.920Z,4.53
2019-06-15T12:39:27.596Z,5.03
2019-06-15T12:41:56.056Z,4.57
2019-06-15T12:44:24.567Z,3.40
2019-06-15T12:46:53.437Z,2.27
2019-06-15T12:49:21.880Z,2.50
2019-06-15T12:51:50.376Z,2.50
2019-06-15T12:54:18.792Z,2.47
2019-06-15T12:56:47.562Z,3.80
2019-06-15T12:59:15.942Z,2.20
2019-06-15T13:01:44.331Z,2.13
2019-06-15T13:04:12.873Z,2.30
2019-06-15T13:06:44.865Z,3.73
2019-06-15T13:09:13.419Z,4.40
2019-06-15T13:11:41.918Z,2.63
2019-06-15T13:14:10.371Z,2.33
2019-06-15T13:16:39.973Z,2.97
2019-06-15T13:19:08.567Z,2.73
2019-06-15T13:21:37.059Z,1.97
2019-06-15T13:24:05.536Z,2.83
2019-06-15T13:26:34.821Z,1.80
2019-06-15T13:29:03.336Z,2.00
2019-06-15T13:31:31.859Z,3.20
2019-06-15T13:34:00.475Z,2.53
2019-06-15T13:36:30.160Z,2.23
2019-06-15T13:38:58.633Z,1.70
2019-06-15T13:41:27.184Z,2.70
2019-06-15T13:43:55.659Z,5.80
2019-06-15T13:46:24.555Z,4.97
2019-06-15T13:48:52.992Z,2.57
2019-06-15T13:51:21.519Z,4.97
2019-06-15T13:53:50.015Z,2.60
2019-06-15T13:56:18.543Z,2.33
2019-06-15T13:58:47.062Z,1.93
2019-06-15T14:01:15.602Z,4.00
2019-06-15T14:03:43.998Z,1.90
2019-06-15T14:06:12.586Z,3.10
2019-06-15T14:08:41.147Z,9.83
2019-06-15T14:11:11.645Z,3.27
2019-06-15T14:13:40.239Z,7.10
2019-06-15T14:16:08.660Z,2.67
2019-06-15T14:18:37.094Z,4.20
2019-06-15T14:21:05.539Z,2.93
2019-06-15T14:23:34.727Z,2.90
2019-06-15T14:26:03.232Z,5.03
2019-06-15T14:28:31.648Z,3.80
2019-06-15T14:31:00.650Z,4.70
2019-06-15T14:33:29.093Z,4.50
2019-06-15T14:36:00.639Z,3.37
2019-06-15T14:38:29.083Z,2.97
2019-06-15T14:40:59.556Z,3.07
2019-06-15T14:43:28.098Z,3.53
2019-06-15T14:45:59.771Z,2.93
2019-06-15T14:48:27.055Z,7.63
2019-06-15T14:50:55.527Z,3.47
2019-06-15T14:53:24.235Z,2.90
2019-06-15T14:55:56.466Z,3.50
2019-06-15T14:58:26.392Z,3.43
2019-06-15T15:00:57.091Z,3.90
2019-06-15T15:03:26.327Z,3.57
2019-06-15T15:05:55.013Z,4.43
2019-06-15T15:08:26.219Z,4.87
2019-06-15T15:10:56.271Z,4.10
2019-06-15T15:13:26.469Z,4.60
2019-06-15T15:15:56.962Z,4.27
2019-06-15T15:18:27.047Z,5.13
2019-06-15T15:20:56.886Z,5.73
2019-06-15T15:23:25.525Z,4.40
2019-06-15T15:25:54.130Z,4.83
2019-06-15T15:28:22.707Z,5.07
2019-06-15T15:30:51.442Z,5.53
2019-06-15T15:33:19.943Z,4.73
2019-06-15T15:35:50.951Z,4.47
2019-06-15T15:38:19.469Z,4.67
2019-06-15T15:40:48.156Z,4.70
2019-06-15T15:43:16.655Z,5.37
2019-06-15T15:45:56.516Z,4.93
2019-06-15T15:48:41.052Z,4.70
2019-06-15T15:51:09.670Z,5.30
2019-06-15T15:53:38.135Z,4.87
2019-06-15T15:56:06.569Z,4.17
2019-06-15T15:58:36.322Z,5.27
2019-06-15T16:01:06.547Z,5.93
2019-06-15T16:03:36.989Z,5.00
2019-06-15T16:06:08.281Z,5.03
2019-06-15T16:08:36.912Z,4.97
2019-06-15T16:11:05.527Z,6.23
2019-06-15T16:13:48.289Z,5.77
2019-06-15T16:16:37.319Z,6.07
2019-06-15T16:19:06.512Z,6.37
2019-06-15T16:21:36.699Z,7.43
2019-06-15T16:24:07.469Z,6.33
2019-06-15T16:26:37.589Z,7.10
2019-06-15T16:29:06.936Z,6.03
2019-06-15T16:31:37.671Z,6.30
2019-06-15T16:34:06.144Z,5.83
2019-06-15T16:36:36.515Z,6.83
2019-06-15T16:39:06.654Z,5.33
2019-06-15T16:41:36.489Z,9.07
2019-06-15T16:44:07.155Z,7.60
2019-06-15T16:46:36.888Z,5.63
2019-06-15T16:49:05.684Z,7.97
2019-06-15T16:51:36.141Z,8.97
2019-06-15T16:54:06.334Z,8.57
2019-06-15T16:56:36.165Z,5.43
2019-06-15T16:59:06.748Z,4.90
2019-06-15T17:01:36.140Z,6.70
2019-06-15T17:04:06.130Z,5.07
2019-06-15T17:06:37.646Z,7.27
2019-06-15T17:09:06.425Z,5.33
2019-06-15T17:11:36.664Z,4.63
2019-06-15T17:14:06.902Z,5.63
2019-06-15T17:16:37.656Z,5.70
2019-06-15T17:19:07.158Z,6.50
2019-06-15T17:21:37.184Z,5.80
2019-06-15T17:24:06.739Z,5.10
2019-06-15T17:26:36.570Z,3.60
2019-06-15T17:29:07.533Z,3.37
2019-06-15T17:31:37.442Z,4.13
2019-06-15T17:34:07.264Z,4.43
2019-06-15T17:36:36.774Z,3.60
2019-06-15T17:39:06.194Z,3.87
2019-06-15T17:41:36.632Z,4.57
2019-06-15T17:44:06.065Z,5.30
2019-06-15T17:46:34.704Z,4.87
2019-06-15T17:49:03.200Z,5.77
2019-06-15T17:51:31.852Z,5.27
2019-06-15T17:54:00.263Z,4.10
2019-06-15T17:56:29.133Z,4.40
2019-06-15T17:58:57.724Z,5.63
2019-06-15T18:01:26.659Z,4.80
2019-06-15T18:03:58.230Z,4.53
2019-06-15T18:06:26.780Z,6.10
2019-06-15T18:08:55.564Z,4.63
2019-06-15T18:11:29.864Z,5.03
2019-06-15T18:13:58.335Z,5.17
2019-06-15T18:16:30.337Z,10.00
2019-06-15T18:18:57.031Z,5.87
2019-06-15T18:21:26.906Z,5.53
2019-06-15T18:23:57.265Z,5.97
2019-06-15T18:26:26.844Z,6.57
2019-06-15T18:28:55.422Z,5.40
2019-06-15T18:31:24.119Z,7.03
2019-06-15T18:34:08.352Z,6.17
2019-06-15T18:36:22.860Z,5.47
2019-06-15T18:38:51.313Z,6.23
2019-06-15T18:41:19.759Z,5.50
2019-06-15T18:43:48.121Z,6.40
2019-06-15T18:46:16.707Z,5.63
2019-06-15T18:48:47.098Z,6.13
2019-06-15T18:51:16.529Z,6.23
2019-06-15T18:53:46.539Z,6.87
2019-06-15T18:56:16.293Z,6.30
2019-06-15T18:58:47.500Z,6.03
2019-06-15T19:01:16.390Z,5.63
2019-06-15T19:03:46.725Z,5.83
2019-06-15T19:06:16.828Z,5.33
2019-06-15T19:08:46.912Z,5.67
2019-06-15T19:11:16.491Z,5.90
2019-06-15T19:13:46.602Z,6.47
2019-06-15T19:16:16.653Z,5.10
2019-06-15T19:18:46.273Z,5.80
2019-06-15T19:21:16.879Z,5.20
2019-06-15T19:23:46.929Z,6.73
2019-06-15T19:26:16.434Z,4.93
2019-06-15T19:28:45.984Z,6.13
2019-06-15T19:31:14.729Z,10.93
2019-06-15T19:33:43.237Z,6.63
2019-06-15T19:36:11.606Z,8.43
2019-06-15T19:38:40.085Z,5.27
2019-06-15T19:41:08.539Z,5.20
2019-06-15T19:43:36.939Z,5.93
2019-06-15T19:46:06.840Z,5.87
2019-06-15T19:48:36.861Z,5.83
2019-06-15T19:51:05.767Z,5.70
2019-06-15T19:53:36.374Z,5.80
2019-06-15T19:56:06.653Z,5.97
2019-06-15T19:58:34.559Z,6.53
2019-06-15T20:01:03.282Z,6.67
2019-06-15T20:03:31.687Z,6.30
2019-06-15T20:06:00.123Z,6.30
2019-06-15T20:08:28.610Z,6.30
2019-06-15T20:10:57.310Z,6.37
2019-06-15T20:13:25.762Z,6.30
2019-06-15T20:15:54.174Z,6.10
2019-06-15T20:18:22.691Z,5.90
2019-06-15T20:20:51.067Z,7.73
2019-06-15T20:23:19.448Z,5.97
2019-06-15T20:25:47.856Z,6.97
2019-06-15T20:28:16.481Z,6.27
2019-06-15T20:30:46.159Z,6.23
2019-06-15T20:33:16.629Z,6.63
2019-06-15T20:35:47.076Z,7.03
2019-06-15T20:38:16.055Z,6.27
2019-06-15T20:40:47.074Z,6.93
2019-06-15T20:43:17.108Z,5.93
2019-06-15T20:45:46.898Z,7.00
2019-06-15T20:48:15.388Z,7.50
2019-06-15T20:50:43.836Z,6.67
2019-06-15T20:53:12.282Z,7.50
2019-06-15T20:55:40.672Z,7.40
2019-06-15T20:58:09.254Z,6.70
2019-06-15T21:00:37.686Z,9.57
2019-06-15T21:03:06.797Z,9.00
2019-06-15T21:05:40.991Z,7.90
2019-06-15T21:08:06.953Z,6.70
2019-06-15T21:10:37.329Z,6.70
2019-06-15T21:13:05.711Z,7.27
2019-06-15T21:15:36.868Z,7.27
2019-06-15T21:18:06.734Z,7.17
2019-06-15T21:20:36.616Z,7.77
2019-06-15T21:23:06.639Z,8.50
2019-06-15T21:25:35.247Z,7.00
2019-06-15T21:28:06.470Z,7.63
2019-06-15T21:30:36.628Z,7.30
2019-06-15T21:33:06.819Z,7.50
2019-06-15T21:35:48.173Z,9.10
2019-06-15T21:38:06.520Z,7.80
2019-06-15T21:40:36.801Z,7.77
2019-06-15T21:43:06.818Z,7.17
2019-06-15T21:45:36.832Z,8.13
2019-06-15T21:48:06.714Z,8.07
2019-06-15T21:50:37.537Z,8.13
2019-06-15T21:53:06.828Z,9.50
2019-06-15T21:55:38.759Z,10.47
2019-06-15T21:58:07.788Z,9.73
2019-06-15T22:00:47.555Z,8.07
2019-06-15T22:03:17.404Z,9.10
2019-06-15T22:05:59.781Z,10.67
2019-06-15T22:08:17.532Z,8.93
2019-06-15T22:10:45.995Z,8.33
2019-06-15T22:13:16.026Z,8.77
2019-06-15T22:15:46.613Z,8.30
2019-06-15T22:18:16.416Z,11.23
2019-06-15T22:20:47.003Z,9.07
2019-06-15T22:23:17.240Z,9.07
2019-06-15T22:25:48.759Z,8.97
2019-06-15T22:28:18.483Z,11.73
2019-06-15T22:30:46.970Z,12.03
2019-06-15T22:33:16.638Z,10.40
2019-06-15T22:35:47.405Z,11.57
2019-06-15T22:38:18.723Z,10.27
2019-06-15T22:40:47.150Z,10.17
2019-06-15T22:43:16.721Z,12.53
2019-06-15T22:45:49.773Z,10.77
2019-06-15T22:48:16.493Z,10.50
2019-06-15T22:50:46.791Z,11.17
2019-06-15T22:53:16.475Z,10.33
2019-06-15T22:55:46.270Z,10.50
2019-06-15T22:58:17.791Z,11.60
2019-06-15T23:00:46.980Z,10.37
2019-06-15T23:03:16.879Z,10.03
2019-06-15T23:05:46.307Z,10.67
2019-06-15T23:08:16.306Z,10.43
2019-06-15T23:10:46.889Z,11.13
2019-06-15T23:13:16.035Z,11.23
2019-06-15T23:15:47.086Z,11.60
2019-06-15T23:18:16.959Z,11.50
2019-06-15T23:20:46.195Z,10.83
2019-06-15T23:23:16.184Z,11.20
2019-06-15T23:25:47.009Z,9.90
2019-06-15T23:28:16.614Z,10.87
2019-06-15T23:30:47.275Z,11.67
2019-06-15T23:33:17.294Z,10.63
2019-06-15T23:35:51.015Z,11.40
2019-06-15T23:38:19.390Z,10.80
2019-06-15T23:40:47.838Z,9.73
2019-06-15T23:43:16.687Z,11.17
2019-06-15T23:45:46.822Z,9.63
2019-06-15T23:48:16.109Z,12.63
2019-06-15T23:50:46.378Z,10.67
2019-06-15T23:53:16.925Z,10.27
2019-06-15T23:55:47.019Z,11.27
2019-06-15T23:58:17.342Z,13.07
